Friday, February 23, 2018, 3:09 PM EST
Back to Local

KNTU, Oceana, Naval Air Station

Location: Virginia Beach, VA, United States Lat: 36.817
Local Time: 3:09 PM EST (20:09 GMT) Lon: -76.033
Time Zone: US/Eastern Elev: 22 ft

Show me the last for .
Show Coded

Time T Td Feel RH Dir Speed Gust Alt SLP Vis Weather Sky Remarks
2018-02-23 14:56 50 46 47 86 340° 8 - 30.40 30.41 6 BR OVC006 None
2018-02-23 14:05 50 46 48 86 320° 5 - 30.41 - 4 BR OVC004 None
2018-02-23 13:56 50 47 48 89 330° 6 - 30.41 30.42 4 BR OVC003 None
2018-02-23 13:49 49 46 48 89 330° 3 - 30.42 - 4 BR OVC003 None
2018-02-23 13:20 48 46 46 92 320° 5 - 30.43 - 1 BR OVC002 None
2018-02-23 12:56 48 46 46 92 310° 5 - 30.45 30.45 0 FG OVC002 None
2018-02-23 11:56 47 46 44 96 330° 7 - 30.47 30.48 0 FG VV002 None
2018-02-23 10:56 48 47 44 96 350° 9 - 30.50 30.50 0 FG VV002 None
2018-02-23 09:56 47 46 44 96 350° 7 - 30.52 30.52 0 FG VV002 None
2018-02-23 08:56 46 44 43 92 20° 6 - 30.52 30.53 0 FG VV002 None
2018-02-23 08:05 45 44 41 96 20° 8 - 30.52 - 0 FG VV002 None
2018-02-23 07:56 46 44 42 92 30° 7 - 30.52 30.52 0 FG VV003 None
2018-02-23 06:56 45 43 41 92 10° 8 - 30.52 30.53 0 FG OVC003 None
2018-02-23 06:50 45 43 40 93 20° 8 - 30.52 - 0 BR OVC003 None
2018-02-23 06:14 45 43 40 92 20° 9 - 30.51 - 0 BR OVC003 None
2018-02-23 05:56 45 43 40 92 20° 9 - 30.51 30.52 1 BR OVC003 1-hr Precip Total: Trace
2018-02-23 04:56 45 43 40 92 20° 10 - 30.51 30.52 1 -DZ BR OVC003 1-hr Precip Total: Trace
2018-02-23 04:37 45 43 39 92 10° 12 - 30.51 - 1 -DZ BR OVC003 1-hr Precip Total: Trace
2018-02-23 03:56 45 43 39 92 20° 12 - 30.51 30.52 0 -DZ BR OVC003 1-hr Precip Total: Trace
6-hr Precip Total (4am): 0.00"
2018-02-23 02:56 45 43 40 92 10° 9 - 30.51 30.52 0 BR OVC003 None
2018-02-23 01:56 45 43 40 92 20° 10 - 30.50 30.50 0 BR OVC003 None
2018-02-23 00:56 44 42 39 92 20° 9 - 30.51 30.52 0 BR OVC003 None
2018-02-22 23:56 44 42 38 92 20° 12 - 30.52 30.52 0 BR OVC003 None
2018-02-22 22:56 44 42 38 92 40° 12 - 30.52 30.53 0 BR OVC003 1-hr Precip Total: Trace
2018-02-22 21:56 44 41 35 88 20° 14 25 30.52 30.53 0 -RA BR OVC003 1-hr Precip Total: Trace
6-hr Precip Total (10pm): 0.00"
2018-02-22 20:56 45 43 36 92 30° 18 28 30.51 30.51 0 BR OVC003 None
2018-02-22 19:56 46 44 38 92 20° 16 24 30.48 30.49 0 BR OVC003 None
2018-02-22 19:12 47 45 43 92 50° 8 - 30.44 - 0 BR OVC003 None
2018-02-22 18:56 48 45 43 89 20° 12 - 30.44 30.44 2 BR BKN003 Wind Shift: 05 min
6-hr Min Temp (7pm): 48.0°F
6-hr Max Temp (7pm): 78.1°F
2018-02-22 18:37 49 45 45 86 40° 10 - 30.42 - 4 BR BKN003 Wind Shift: 05 min
2018-02-22 18:25 50 45 46 82 30° 12 - 30.41 - 10 CLR Wind Shift: 05 min
2018-02-22 17:56 71 57 76 61 250° 5 - 30.38 30.39 10 FEW040 None
2018-02-22 16:56 77 57 79 50 210° 13 - 30.36 30.36 10 FEW040 None
2018-02-22 15:56 77 59 79 53 220° 14 - 30.36 30.36 10 BKN040 None

Support USWX by starting your Amazon purchase here.